Home > Products > Valid Products > MTR

000
SAUS42 KMLB 200754
MTRMCO
METAR KMCO 200753Z 36005KT 10SM FEW042 19/18 A3002 RMK AO2 SLP164
T01890183 $





000
SAUS42 KMLB 200655
MTRMCO
METAR KMCO 200653Z 35004KT 10SM SCT042 SCT065 20/18 A3004 RMK AO2
SLP169 T02000183 $





000
SAUS42 KMLB 200555
MTRMCO
METAR KMCO 200553Z 34004KT 10SM FEW060 20/18 A3004 RMK AO2 SLP172
T02000183 10233 20200 58005 $





000
SAUS42 KMLB 200455
MTRMCO
METAR KMCO 200453Z 35003KT 10SM FEW040 20/18 A3005 RMK AO2 SLP175
T02000183 402940150 $





000
SAUS42 KMLB 200354
MTRMCO
METAR KMCO 200353Z 36006KT 10SM FEW040 FEW250 21/18 A3005 RMK AO2
SLP174 T02060183 $





000
SAUS42 KMLB 200255
MTRMCO
METAR KMCO 200253Z 01007KT 10SM FEW040 FEW250 21/18 A3006 RMK AO2
SLP176 T02110183 51012 $





000
SAUS42 KMLB 200154
MTRMCO
METAR KMCO 200153Z 03009KT 10SM FEW050 FEW250 22/18 A3005 RMK AO2
SLP173 T02220178 $





000
SAUS42 KMLB 200055
MTRMCO
METAR KMCO 200053Z 03009KT 10SM FEW250 23/18 A3004 RMK AO2 SLP170
T02280183 $





000
SAUS42 KMLB 192354
MTRMCO
METAR KMCO 192353Z 04010KT 10SM FEW250 23/18 A3002 RMK AO2 SLP164
T02330183 10294 20233 53012 $





000
SAUS42 KMLB 192354
MTRMCO
METAR KMCO 192353Z 04010KT 10SM FEW250 23/18 A3002 RMK AO2 SLP164
T02330183 10294 20233 53012 $





000
SAUS42 KMLB 192254
MTRMCO
METAR KMCO 192253Z 05009KT 10SM FEW050 SCT300 24/18 A3001 RMK AO2
SLP159 T02440178 $





000
SAUS42 KMLB 192254
MTRMCO
METAR KMCO 192253Z 05009KT 10SM FEW050 SCT300 24/18 A3001 RMK AO2
SLP159 T02440178 $





000
SAUS42 KMLB 192155
MTRMCO
METAR KMCO 192153Z 04009KT 10SM FEW050 SCT250 27/17 A2999 RMK AO2
SLP155 T02670172 $





000
SAUS42 KMLB 192054
MTRMCO
METAR KMCO 192053Z 04013KT 10SM SCT050 SCT300 29/18 A2998 RMK AO2
SLP152 T02890178 56006 $





000
SAUS42 KMLB 191955
MTRMCO
METAR KMCO 191953Z 05005KT 10SM SCT049 SCT300 28/17 A2998 RMK AO2
SLP152 T02780167 $





000
SAUS42 KMLB 191855
MTRMCO
METAR KMCO 191853Z 04007G14KT 10SM SCT047 SCT300 29/18 A2998 RMK AO2
SLP151 T02890178 $





000
SAUS42 KMLB 191755
MTRMCO
METAR KMCO 191753Z 07005KT 10SM SCT047 SCT300 28/17 A3000 RMK AO2
SLP158 T02830172 10289 20150 58012 $





000
SAUS42 KMLB 191655
MTRMCO
METAR KMCO 191653Z 02007KT 10SM SCT039 SCT300 28/18 A3002 RMK AO2
SLP165 T02780183 $





000
SAUS42 KMLB 191554
MTRMCO
METAR KMCO 191553Z 03009KT 10SM FEW050 FEW300 27/19 A3003 RMK AO2
SLP168 T02670189 $





000
SAUS42 KMLB 191455
MTRMCO
METAR KMCO 191453Z 03006KT 10SM FEW300 25/18 A3004 RMK AO2 SLP170
T02500183 51013 $





000
SAUS42 KMLB 191354
MTRMCO
METAR KMCO 191353Z 35006KT 10SM BKN300 22/18 A3003 RMK AO2 SLP168
T02170183 $





000
SAUS42 KMLB 191255
MTRMCO
METAR KMCO 191253Z VRB05KT 10SM FEW040 SCT300 19/18 A3002 RMK AO2
SLP164 T01890183 $





000
SAUS42 KMLB 191154
MTRMCO
METAR KMCO 191153Z 00000KT 5SM BR BKN300 16/16 A3000 RMK AO2 SLP157
VIS 3/4 E-S T01560156 10189 20150 51009 $





000
SAUS42 KMLB 191055
MTRMCO
METAR KMCO 191053Z 21003KT 5SM R35L/5000VP6000FT BR FEW250 BKN300
16/16 A2999 RMK AO2 SLP153 T01560156





000
SAUS42 KMLB 190958
MTRMCO
SPECI KMCO 190957Z 21003KT 4SM R35L/2800VP6000FT BR FEW002 SCT300
15/15 A2999 RMK AO2 VIS E 2 SE-S 1 T01500150





000
SAUS42 KMLB 190958
MTRMCO
SPECI KMCO 190957Z 21003KT 4SM R35L/2800VP6000FT BR FEW002 SCT300
15/15 A2999 RMK AO2 VIS E 2 SE-S 1 T01500150





000
SAUS42 KMLB 190954
MTRMCO
METAR KMCO 190953Z 21003KT 2SM R35L/2600V5500FT BR FEW002 SCT300
15/15 A2999 RMK AO2 TWR VIS 10 SLP152 VIS E 3/4 T01500150





000
SAUS42 KMLB 190954
MTRMCO
METAR KMCO 190953Z 21003KT 2SM R35L/2600V5500FT BR FEW002 SCT300
15/15 A2999 RMK AO2 TWR VIS 10 SLP152 VIS E 3/4 T01500150





000
SAUS42 KMLB 190936
MTRMCO
SPECI KMCO 190934Z 00000KT 2SM R35L/2200V3500FT BR FEW002 SCT300
15/15 A2998 RMK AO2 TWR VIS 10 VIS E 3/4 NW 1/4 T01500150





000
SAUS42 KMLB 190909
MTRMCO
SPECI KMCO 190907Z 00000KT 1 1/2SM R35L/4000VP6000FT BR FEW002
SCT300 16/16 A2997 RMK AO2 T01610161





000
SAUS42 KMLB 190855
MTRMCO
METAR KMCO 190853Z 00000KT 10SM R35L/1800VP6000FT FEW002 SCT300
16/16 A2997 RMK AO2 SLP148 VIS SW-W 2 T01610161 57009





000
SAUS42 KMLB 190835
MTRMCO
SPECI KMCO 190833Z 00000KT 10SM FEW002 SCT300 16/16 A2998 RMK AO2
T01560156





000
SAUS42 KMLB 190754
MTRMCO
METAR KMCO 190753Z 00000KT 10SM SCT300 17/17 A2998 RMK AO2 SLP151
T01670167





000
SAUS42 KMLB 190654
MTRMCO
METAR KMCO 190653Z 00000KT 10SM FEW300 17/17 A2999 RMK AO2 SLP154
T01720167





000
SAUS42 KMLB 190554
MTRMCO
METAR KMCO 190553Z 30004KT 10SM FEW300 19/18 A3000 RMK AO2 SLP157
T01890178 10239 20189 51007





000
SAUS42 KMLB 190455
MTRMCO
METAR KMCO 190453Z 32005KT 10SM FEW300 19/17 A2999 RMK AO2 SLP155
T01940172 402830144





000
SAUS42 KMLB 190455
MTRMCO
METAR KMCO 190453Z 32005KT 10SM FEW300 19/17 A2999 RMK AO2 SLP155
T01940172 402830144





000
SAUS42 KMLB 190355
MTRMCO
METAR KMCO 190353Z 30006KT 10SM SCT300 21/18 A2999 RMK AO2 SLP154
T02060178





000
SAUS42 KMLB 190355
MTRMCO
METAR KMCO 190353Z 30006KT 10SM SCT300 21/18 A2999 RMK AO2 SLP154
T02060178





000
SAUS42 KMLB 190255
MTRMCO
METAR KMCO 190253Z 30004KT 10SM FEW300 21/17 A2998 RMK AO2 SLP150
T02060172 53015





000
SAUS42 KMLB 190154
MTRMCO
METAR KMCO 190153Z 28007KT 10SM FEW300 22/17 A2996 RMK AO2 SLP145
T02220167





000
SAUS42 KMLB 190055
MTRMCO
METAR KMCO 190053Z 29008KT 10SM FEW300 23/17 A2995 RMK AO2 SLP139
T02330167





000
SAUS42 KMLB 182354
MTRMCO
METAR KMCO 182353Z 24003KT 10SM SCT300 23/16 A2994 RMK AO2 SLP136
T02330156 10283 20233 53008





000
SAUS42 KMLB 182254
MTRMCO
METAR KMCO 182253Z 23004KT 10SM FEW250 BKN300 25/15 A2992 RMK AO2
SLP129 T02500150





000
SAUS42 KMLB 182154
MTRMCO
METAR KMCO 182153Z 27006KT 10SM SCT300 28/14 A2991 RMK AO2 SLP127
T02780144





000
SAUS42 KMLB 182154
MTRMCO
METAR KMCO 182153Z 27006KT 10SM SCT300 28/14 A2991 RMK AO2 SLP127
T02780144





000
SAUS42 KMLB 182054
MTRMCO
METAR KMCO 182053Z 28005KT 10SM BKN300 28/13 A2991 RMK AO2 SLP128
T02830133 56013





000
SAUS42 KMLB 181955
MTRMCO
METAR KMCO 181953Z 00000KT 10SM BKN300 28/14 A2992 RMK AO2 SLP131
T02780139





000
SAUS42 KMLB 181955
MTRMCO
METAR KMCO 181953Z 00000KT 10SM BKN300 28/14 A2992 RMK AO2 SLP131
T02780139





000
SAUS42 KMLB 181937
MTRMCO
METAR KMCO 181853Z VRB04KT 10SM FEW250 27/13 A2993 RMK AO2 SLP134
T02720133





000
SAUS42 KMLB 181855
MTRMCO
METAR KMCO 181853Z VRB04KT 10SM FEW250 27/13 A2993 RMK AO2 SLP134
T02720133





000
SAUS42 KMLB 181755
MTRMCO
METAR KMCO 181753Z 32008KT 10SM FEW250 27/13 A2995 RMK AO2 SLP140
T02720133 10272 20167 58019





000
SAUS42 KMLB 181655
MTRMCO
METAR KMCO 181653Z 26006KT 10SM FEW250 26/14 A2998 RMK AO2 SLP150
T02610144





000
SAUS42 KMLB 181655
MTRMCO
METAR KMCO 181653Z 26006KT 10SM FEW250 26/14 A2998 RMK AO2 SLP150
T02610144





000
SAUS42 KMLB 181555
MTRMCO
METAR KMCO 181553Z VRB04KT 10SM FEW250 25/14 A3000 RMK AO2 SLP157
T02500144





000
SAUS42 KMLB 181555
MTRMCO
METAR KMCO 181553Z VRB04KT 10SM FEW250 25/14 A3000 RMK AO2 SLP157
T02500144





000
SAUS42 KMLB 181454
MTRMCO
METAR KMCO 181453Z VRB04KT 10SM FEW250 24/14 A3001 RMK AO2 SLP159
T02440144 50004





000
SAUS42 KMLB 181454
MTRMCO
METAR KMCO 181453Z VRB04KT 10SM FEW250 24/14 A3001 RMK AO2 SLP159
T02440144 50004





000
SAUS42 KMLB 181355
MTRMCO
METAR KMCO 181353Z 34003KT 10SM FEW250 23/16 A3001 RMK AO2 SLP160
T02280156





000
SAUS42 KMLB 181254
MTRMCO
METAR KMCO 181253Z 00000KT 10SM FEW250 20/16 A3001 RMK AO2 SLP159
T02000161





000
SAUS42 KMLB 181155
MTRMCO
METAR KMCO 181153Z 28003KT 10SM FEW250 17/16 A3000 RMK AO2 SLP156
T01720156 10172 20144 51012





000
SAUS42 KMLB 181155
MTRMCO
METAR KMCO 181153Z 28003KT 10SM FEW250 17/16 A3000 RMK AO2 SLP156
T01720156 10172 20144 51012





000
SAUS42 KMLB 181054
MTRMCO
METAR KMCO 181053Z 28003KT 10SM CLR 16/14 A2999 RMK AO2 SLP153
T01560144





000
SAUS42 KMLB 181054
MTRMCO
METAR KMCO 181053Z 28003KT 10SM CLR 16/14 A2999 RMK AO2 SLP153
T01560144





000
SAUS42 KMLB 180955
MTRMCO
METAR KMCO 180953Z 00000KT 10SM CLR 16/14 A2998 RMK AO2 SLP150
T01560144





000
SAUS42 KMLB 180955
MTRMCO
METAR KMCO 180953Z 00000KT 10SM CLR 16/14 A2998 RMK AO2 SLP150
T01560144





000
SAUS42 KMLB 180855
MTRMCO
METAR KMCO 180853Z 00000KT 10SM CLR 17/15 A2996 RMK AO2 SLP144
T01720150 56004





000
SAUS42 KMLB 180755
MTRMCO
METAR KMCO 180753Z 30003KT 10SM CLR 16/14 A2996 RMK AO2 SLP144
T01610139





000
SAUS42 KMLB 180755
MTRMCO
METAR KMCO 180753Z 30003KT 10SM CLR 16/14 A2996 RMK AO2 SLP144
T01610139





000
SAUS42 KMLB 180655
MTRMCO
METAR KMCO 180653Z 00000KT 10SM CLR 16/14 A2996 RMK AO2 SLP145
T01610144





000
SAUS42 KMLB 180555
MTRMCO
METAR KMCO 180553Z 17003KT 10SM CLR 16/14 A2997 RMK AO2 SLP148
T01560139 10228 20156 58004





000
SAUS42 KMLB 180455
MTRMCO
METAR KMCO 180453Z 02004KT 10SM CLR 18/14 A2998 RMK AO2 SLP151
T01830139 402830150





000
SAUS42 KMLB 180455
MTRMCO
METAR KMCO 180453Z 02004KT 10SM CLR 18/14 A2998 RMK AO2 SLP151
T01830139 402830150





000
SAUS42 KMLB 180355
MTRMCO
METAR KMCO 180353Z 35005KT 10SM CLR 19/15 A2999 RMK AO2 SLP154
T01940150





000
SAUS42 KMLB 180255
MTRMCO
METAR KMCO 180253Z 29006KT 10SM CLR 19/15 A2999 RMK AO2 SLP153
T01940150 51010





000
SAUS42 KMLB 180154
MTRMCO
METAR KMCO 180153Z 00000KT 10SM CLR 21/15 A2998 RMK AO2 SLP150
T02060150





000
SAUS42 KMLB 180055
MTRMCO
METAR KMCO 180053Z 33003KT 10SM CLR 22/14 A2997 RMK AO2 SLP146
T02220144





000
SAUS42 KMLB 172354
MTRMCO
METAR KMCO 172353Z 32005KT 10SM CLR 23/14 A2996 RMK AO2 SLP142
T02280144 10283 20228 53006





000
SAUS42 KMLB 172354
MTRMCO
METAR KMCO 172353Z 32005KT 10SM CLR 23/14 A2996 RMK AO2 SLP142
T02280144 10283 20228 53006





000
SAUS42 KMLB 172255
MTRMCO
METAR KMCO 172253Z 33007KT 10SM CLR 24/14 A2995 RMK AO2 SLP139
T02440144





000
SAUS42 KMLB 172255
MTRMCO
METAR KMCO 172253Z 33007KT 10SM CLR 24/14 A2995 RMK AO2 SLP139
T02440144





000
SAUS42 KMLB 172154
MTRMCO
METAR KMCO 172153Z 34005KT 10SM FEW050 27/13 A2994 RMK AO2 SLP136
T02720133





000
SAUS42 KMLB 172154
MTRMCO
METAR KMCO 172153Z 34005KT 10SM FEW050 27/13 A2994 RMK AO2 SLP136
T02720133





000
SAUS42 KMLB 172121
MTRMCO
METAR KMCO 172053Z COR 19003KT 10SM FEW050 27/13 A2994 RMK AO2
SLP136 T02670133 56010





000
SAUS42 KMLB 172121
MTRMCO
METAR KMCO 172053Z COR 19003KT 10SM FEW050 27/13 A2994 RMK AO2
SLP136 T02670133 56010





    US Dept of Commerce
    National Oceanic and Atmospheric Administration
    National Weather Service
    1325 East West Highway
    Silver Spring, MD 20910
    Page Author: NWS Internet Services Team
Disclaimer
Information Quality
Credits
Glossary
Privacy Policy
Freedom of Information Act (FOIA)
About Us
Career Opportunities